sensor_id;sensor_type;location;lat;lon;timestamp;pressure;altitude;pressure_sealevel;temperature;humidity
70338;BME280;57757;53.198;19.646;2023-07-20T00:01:54;99499.04;;;16.37;57.76
70338;BME280;57757;53.198;19.646;2023-07-20T00:04:22;99495.71;;;16.31;57.86
70338;BME280;57757;53.198;19.646;2023-07-20T00:06:50;99495.33;;;16.26;57.93
70338;BME280;57757;53.198;19.646;2023-07-20T00:09:17;99494.01;;;16.21;58.04
70338;BME280;57757;53.198;19.646;2023-07-20T00:11:49;99494.65;;;16.16;58.12
70338;BME280;57757;53.198;19.646;2023-07-20T00:14:19;99497.02;;;16.11;58.19
70338;BME280;57757;53.198;19.646;2023-07-20T00:16:47;99501.11;;;16.08;58.29
70338;BME280;57757;53.198;19.646;2023-07-20T00:19:24;99502.82;;;16.02;58.41
70338;BME280;57757;53.198;19.646;2023-07-20T00:21:53;99500.98;;;15.98;58.42
70338;BME280;57757;53.198;19.646;2023-07-20T00:24:21;99500.85;;;15.94;58.55
70338;BME280;57757;53.198;19.646;2023-07-20T00:26:48;99498.14;;;15.89;58.65
70338;BME280;57757;53.198;19.646;2023-07-20T00:29:16;99503.84;;;15.84;58.66
70338;BME280;57757;53.198;19.646;2023-07-20T00:31:43;99502.17;;;15.76;58.68
70338;BME280;57757;53.198;19.646;2023-07-20T00:34:11;99501.14;;;15.70;58.72
70338;BME280;57757;53.198;19.646;2023-07-20T00:36:38;99498.98;;;15.64;58.88
70338;BME280;57757;53.198;19.646;2023-07-20T00:39:06;99497.47;;;15.60;58.87
70338;BME280;57757;53.198;19.646;2023-07-20T00:41:33;99490.98;;;15.57;59.02
70338;BME280;57757;53.198;19.646;2023-07-20T00:44:01;99489.20;;;15.54;59.09
70338;BME280;57757;53.198;19.646;2023-07-20T00:46:28;99494.59;;;15.52;59.34
70338;BME280;57757;53.198;19.646;2023-07-20T00:48:56;99495.70;;;15.51;59.46
70338;BME280;57757;53.198;19.646;2023-07-20T00:51:25;99498.85;;;15.51;59.62
70338;BME280;57757;53.198;19.646;2023-07-20T00:53:53;99501.19;;;15.53;59.60
70338;BME280;57757;53.198;19.646;2023-07-20T00:56:21;99505.96;;;15.55;59.67
70338;BME280;57757;53.198;19.646;2023-07-20T00:58:50;99504.40;;;15.55;59.55
70338;BME280;57757;53.198;19.646;2023-07-20T01:01:18;99502.40;;;15.56;59.58
70338;BME280;57757;53.198;19.646;2023-07-20T01:03:45;99493.23;;;15.57;59.79
70338;BME280;57757;53.198;19.646;2023-07-20T01:09:08;99493.61;;;15.57;59.83
70338;BME280;57757;53.198;19.646;2023-07-20T01:12:05;99492.79;;;15.56;59.90
70338;BME280;57757;53.198;19.646;2023-07-20T01:14:29;99496.46;;;15.56;60.06
70338;BME280;57757;53.198;19.646;2023-07-20T01:16:57;99499.75;;;15.56;60.04
70338;BME280;57757;53.198;19.646;2023-07-20T01:19:24;99492.08;;;15.56;60.10
70338;BME280;57757;53.198;19.646;2023-07-20T01:30:30;99486.24;;;15.47;60.17
70338;BME280;57757;53.198;19.646;2023-07-20T01:33:03;99482.52;;;15.45;60.26
70338;BME280;57757;53.198;19.646;2023-07-20T01:35:31;99480.52;;;15.42;60.28
70338;BME280;57757;53.198;19.646;2023-07-20T01:38:00;99483.40;;;15.41;60.32
70338;BME280;57757;53.198;19.646;2023-07-20T01:40:28;99483.44;;;15.41;60.34
70338;BME280;57757;53.198;19.646;2023-07-20T01:42:55;99491.13;;;15.41;60.37
70338;BME280;57757;53.198;19.646;2023-07-20T01:45:23;99496.95;;;15.40;60.50
70338;BME280;57757;53.198;19.646;2023-07-20T01:47:50;99501.17;;;15.40;60.50
70338;BME280;57757;53.198;19.646;2023-07-20T01:50:18;99498.41;;;15.39;60.51
70338;BME280;57757;53.198;19.646;2023-07-20T01:52:45;99506.48;;;15.39;60.46
70338;BME280;57757;53.198;19.646;2023-07-20T01:55:13;99512.71;;;15.37;60.44
70338;BME280;57757;53.198;19.646;2023-07-20T01:57:40;99514.73;;;15.35;60.59
70338;BME280;57757;53.198;19.646;2023-07-20T02:00:08;99512.02;;;15.33;60.52
70338;BME280;57757;53.198;19.646;2023-07-20T02:02:37;99514.65;;;15.33;60.59
70338;BME280;57757;53.198;19.646;2023-07-20T02:05:04;99510.08;;;15.33;60.62
70338;BME280;57757;53.198;19.646;2023-07-20T02:07:33;99503.20;;;15.34;60.63
70338;BME280;57757;53.198;19.646;2023-07-20T02:10:00;99496.48;;;15.33;60.65
70338;BME280;57757;53.198;19.646;2023-07-20T02:12:28;99491.87;;;15.30;60.57
70338;BME280;57757;53.198;19.646;2023-07-20T02:14:55;99490.81;;;15.27;60.63
70338;BME280;57757;53.198;19.646;2023-07-20T02:17:23;99488.52;;;15.24;60.70
70338;BME280;57757;53.198;19.646;2023-07-20T02:19:52;99488.77;;;15.23;60.71
70338;BME280;57757;53.198;19.646;2023-07-20T02:22:21;99488.46;;;15.22;60.68
70338;BME280;57757;53.198;19.646;2023-07-20T02:24:49;99486.92;;;15.21;60.73
70338;BME280;57757;53.198;19.646;2023-07-20T02:27:17;99490.86;;;15.20;60.79
70338;BME280;57757;53.198;19.646;2023-07-20T02:29:44;99494.91;;;15.19;60.81
70338;BME280;57757;53.198;19.646;2023-07-20T02:32:12;99493.37;;;15.19;60.84
70338;BME280;57757;53.198;19.646;2023-07-20T02:34:39;99495.50;;;15.18;60.83
70338;BME280;57757;53.198;19.646;2023-07-20T02:37:07;99498.45;;;15.15;60.81
70338;BME280;57757;53.198;19.646;2023-07-20T02:39:39;99499.80;;;15.13;60.92
70338;BME280;57757;53.198;19.646;2023-07-20T02:42:07;99507.30;;;15.10;60.92
70338;BME280;57757;53.198;19.646;2023-07-20T02:44:34;99512.60;;;15.10;61.06
70338;BME280;57757;53.198;19.646;2023-07-20T02:47:01;99513.48;;;15.10;61.08
70338;BME280;57757;53.198;19.646;2023-07-20T02:49:29;99516.11;;;15.09;61.24
70338;BME280;57757;53.198;19.646;2023-07-20T02:51:56;99514.91;;;15.09;61.22
70338;BME280;57757;53.198;19.646;2023-07-20T02:54:24;99511.39;;;15.09;61.28
70338;BME280;57757;53.198;19.646;2023-07-20T02:56:51;99515.61;;;15.09;61.27
70338;BME280;57757;53.198;19.646;2023-07-20T02:59:19;99520.34;;;15.09;61.19
70338;BME280;57757;53.198;19.646;2023-07-20T03:01:46;99525.00;;;15.10;61.38
70338;BME280;57757;53.198;19.646;2023-07-20T03:04:14;99527.88;;;15.12;61.37
70338;BME280;57757;53.198;19.646;2023-07-20T03:06:41;99527.62;;;15.14;61.48
70338;BME280;57757;53.198;19.646;2023-07-20T03:09:09;99531.35;;;15.16;61.47
70338;BME280;57757;53.198;19.646;2023-07-20T03:11:36;99534.35;;;15.18;61.50
70338;BME280;57757;53.198;19.646;2023-07-20T03:14:04;99535.34;;;15.20;61.48
70338;BME280;57757;53.198;19.646;2023-07-20T03:16:31;99529.80;;;15.22;61.46
70338;BME280;57757;53.198;19.646;2023-07-20T03:19:00;99532.23;;;15.26;61.53
70338;BME280;57757;53.198;19.646;2023-07-20T03:21:28;99531.00;;;15.29;61.54
70338;BME280;57757;53.198;19.646;2023-07-20T03:23:56;99525.21;;;15.32;61.52
70338;BME280;57757;53.198;19.646;2023-07-20T03:26:23;99527.48;;;15.36;61.47
70338;BME280;57757;53.198;19.646;2023-07-20T03:28:51;99530.19;;;15.38;61.42
70338;BME280;57757;53.198;19.646;2023-07-20T03:31:19;99533.64;;;15.39;61.34
70338;BME280;57757;53.198;19.646;2023-07-20T03:33:46;99532.72;;;15.40;61.41
70338;BME280;57757;53.198;19.646;2023-07-20T03:36:13;99534.50;;;15.42;61.42
70338;BME280;57757;53.198;19.646;2023-07-20T03:38:41;99535.35;;;15.46;61.35
70338;BME280;57757;53.198;19.646;2023-07-20T03:41:09;99534.33;;;15.49;61.35
70338;BME280;57757;53.198;19.646;2023-07-20T03:43:36;99533.16;;;15.54;61.53
70338;BME280;57757;53.198;19.646;2023-07-20T03:46:04;99529.45;;;15.58;61.42
70338;BME280;57757;53.198;19.646;2023-07-20T03:48:34;99528.59;;;15.61;61.40
70338;BME280;57757;53.198;19.646;2023-07-20T03:51:01;99534.16;;;15.65;61.46
70338;BME280;57757;53.198;19.646;2023-07-20T03:53:29;99543.95;;;15.69;61.37
70338;BME280;57757;53.198;19.646;2023-07-20T03:55:56;99548.17;;;15.72;61.23
70338;BME280;57757;53.198;19.646;2023-07-20T03:58:24;99545.90;;;15.75;61.21
70338;BME280;57757;53.198;19.646;2023-07-20T04:00:52;99548.05;;;15.77;61.18
70338;BME280;57757;53.198;19.646;2023-07-20T04:03:19;99541.27;;;15.79;61.12
70338;BME280;57757;53.198;19.646;2023-07-20T04:05:47;99539.07;;;15.84;61.25
70338;BME280;57757;53.198;19.646;2023-07-20T04:08:15;99543.66;;;15.90;61.25
70338;BME280;57757;53.198;19.646;2023-07-20T04:10:44;99544.55;;;15.96;61.28
70338;BME280;57757;53.198;19.646;2023-07-20T04:13:12;99541.98;;;16.01;61.12
70338;BME280;57757;53.198;19.646;2023-07-20T04:15:39;99543.83;;;16.06;61.13
70338;BME280;57757;53.198;19.646;2023-07-20T04:18:07;99542.51;;;16.11;61.07
70338;BME280;57757;53.198;19.646;2023-07-20T04:20:34;99542.48;;;16.14;61.00
70338;BME280;57757;53.198;19.646;2023-07-20T04:23:01;99542.42;;;16.18;60.98
70338;BME280;57757;53.198;19.646;2023-07-20T04:25:29;99542.35;;;16.23;61.06
70338;BME280;57757;53.198;19.646;2023-07-20T04:28:07;99539.84;;;16.26;60.90
70338;BME280;57757;53.198;19.646;2023-07-20T04:30:38;99537.54;;;16.27;60.73
70338;BME280;57757;53.198;19.646;2023-07-20T04:33:07;99536.92;;;16.29;60.72
70338;BME280;57757;53.198;19.646;2023-07-20T04:35:52;99533.89;;;16.32;60.77
70338;BME280;57757;53.198;19.646;2023-07-20T04:38:21;99526.90;;;16.41;60.85
70338;BME280;57757;53.198;19.646;2023-07-20T04:40:49;99532.34;;;16.47;60.87
70338;BME280;57757;53.198;19.646;2023-07-20T04:43:18;99529.05;;;16.52;60.82
70338;BME280;57757;53.198;19.646;2023-07-20T04:45:45;99524.43;;;16.56;60.73
70338;BME280;57757;53.198;19.646;2023-07-20T04:48:14;99525.63;;;16.60;60.64
70338;BME280;57757;53.198;19.646;2023-07-20T04:50:45;99536.22;;;16.62;60.67
70338;BME280;57757;53.198;19.646;2023-07-20T04:53:13;99545.16;;;16.59;60.56
70338;BME280;57757;53.198;19.646;2023-07-20T04:55:48;99540.88;;;16.58;60.48
70338;BME280;57757;53.198;19.646;2023-07-20T04:58:19;99537.52;;;16.58;60.62
70338;BME280;57757;53.198;19.646;2023-07-20T05:00:48;99535.55;;;16.61;60.60
70338;BME280;57757;53.198;19.646;2023-07-20T05:03:17;99531.20;;;16.64;60.62
70338;BME280;57757;53.198;19.646;2023-07-20T05:05:49;99527.45;;;16.65;60.60
70338;BME280;57757;53.198;19.646;2023-07-20T05:08:17;99526.85;;;16.66;60.60
70338;BME280;57757;53.198;19.646;2023-07-20T05:10:44;99527.13;;;16.70;60.65
70338;BME280;57757;53.198;19.646;2023-07-20T05:13:12;99531.64;;;16.75;60.69
70338;BME280;57757;53.198;19.646;2023-07-20T05:15:39;99529.44;;;16.79;60.50
70338;BME280;57757;53.198;19.646;2023-07-20T05:18:07;99528.54;;;16.82;60.30
70338;BME280;57757;53.198;19.646;2023-07-20T05:20:35;99524.23;;;16.84;60.37
70338;BME280;57757;53.198;19.646;2023-07-20T05:23:03;99526.42;;;16.88;60.40
70338;BME280;57757;53.198;19.646;2023-07-20T05:25:30;99529.71;;;16.92;60.41
70338;BME280;57757;53.198;19.646;2023-07-20T05:27:58;99533.79;;;16.97;60.41
70338;BME280;57757;53.198;19.646;2023-07-20T05:30:25;99539.02;;;17.01;60.31
70338;BME280;57757;53.198;19.646;2023-07-20T05:32:53;99535.90;;;17.03;60.17
70338;BME280;57757;53.198;19.646;2023-07-20T05:35:22;99531.67;;;17.09;60.33
70338;BME280;57757;53.198;19.646;2023-07-20T05:37:49;99531.39;;;17.16;60.34
70338;BME280;57757;53.198;19.646;2023-07-20T05:40:17;99529.03;;;17.23;60.22
70338;BME280;57757;53.198;19.646;2023-07-20T05:42:48;99530.55;;;17.33;60.22
70338;BME280;57757;53.198;19.646;2023-07-20T05:45:19;99522.34;;;17.43;60.19
70338;BME280;57757;53.198;19.646;2023-07-20T05:47:47;99527.02;;;17.53;60.14
70338;BME280;57757;53.198;19.646;2023-07-20T05:50:15;99531.40;;;17.62;60.13
70338;BME280;57757;53.198;19.646;2023-07-20T05:52:42;99524.29;;;17.72;60.16
70338;BME280;57757;53.198;19.646;2023-07-20T05:55:10;99522.41;;;17.79;59.94
70338;BME280;57757;53.198;19.646;2023-07-20T05:57:37;99525.77;;;17.87;59.92
70338;BME280;57757;53.198;19.646;2023-07-20T06:00:09;99525.19;;;17.93;59.78
70338;BME280;57757;53.198;19.646;2023-07-20T06:02:41;99520.66;;;17.98;59.78
70338;BME280;57757;53.198;19.646;2023-07-20T06:05:09;99516.16;;;18.08;59.75
70338;BME280;57757;53.198;19.646;2023-07-20T06:07:37;99523.11;;;18.20;59.70
70338;BME280;57757;53.198;19.646;2023-07-20T06:10:05;99519.41;;;18.25;59.37
70338;BME280;57757;53.198;19.646;2023-07-20T06:12:33;99514.89;;;18.32;59.43
70338;BME280;57757;53.198;19.646;2023-07-20T06:15:02;99516.10;;;18.43;59.30
70338;BME280;57757;53.198;19.646;2023-07-20T06:17:30;99512.33;;;18.50;58.94
70338;BME280;57757;53.198;19.646;2023-07-20T06:19:58;99516.06;;;18.57;59.00
70338;BME280;57757;53.198;19.646;2023-07-20T06:22:25;99517.23;;;18.72;58.91
70338;BME280;57757;53.198;19.646;2023-07-20T06:24:53;99517.98;;;18.84;58.78
70338;BME280;57757;53.198;19.646;2023-07-20T06:27:20;99517.77;;;18.90;58.26
70338;BME280;57757;53.198;19.646;2023-07-20T06:29:48;99520.65;;;18.94;58.21
70338;BME280;57757;53.198;19.646;2023-07-20T06:32:15;99517.56;;;19.02;58.29
70338;BME280;57757;53.198;19.646;2023-07-20T06:34:42;99518.75;;;19.14;58.39
70338;BME280;57757;53.198;19.646;2023-07-20T06:37:10;99522.59;;;19.24;58.41
70338;BME280;57757;53.198;19.646;2023-07-20T06:39:37;99524.65;;;19.35;58.02
70338;BME280;57757;53.198;19.646;2023-07-20T06:42:08;99525.91;;;19.42;57.89
70338;BME280;57757;53.198;19.646;2023-07-20T06:44:35;99526.35;;;19.51;57.80
70338;BME280;57757;53.198;19.646;2023-07-20T06:47:03;99527.10;;;19.61;57.54
70338;BME280;57757;53.198;19.646;2023-07-20T06:49:31;99529.66;;;19.67;57.24
70338;BME280;57757;53.198;19.646;2023-07-20T06:51:58;99530.64;;;19.71;57.24
70338;BME280;57757;53.198;19.646;2023-07-20T06:54:26;99531.30;;;19.79;57.25
70338;BME280;57757;53.198;19.646;2023-07-20T06:56:53;99531.23;;;19.84;57.02
70338;BME280;57757;53.198;19.646;2023-07-20T06:59:24;99532.34;;;19.86;56.93
70338;BME280;57757;53.198;19.646;2023-07-20T07:01:51;99534.29;;;19.90;57.14
70338;BME280;57757;53.198;19.646;2023-07-20T07:04:19;99536.27;;;19.95;57.09
70338;BME280;57757;53.198;19.646;2023-07-20T07:06:46;99540.91;;;19.99;56.86
70338;BME280;57757;53.198;19.646;2023-07-20T07:09:14;99541.88;;;20.03;57.04
70338;BME280;57757;53.198;19.646;2023-07-20T07:11:41;99542.21;;;20.10;56.83
70338;BME280;57757;53.198;19.646;2023-07-20T07:14:08;99541.80;;;20.18;56.91
70338;BME280;57757;53.198;19.646;2023-07-20T07:16:36;99538.95;;;20.28;56.80
70338;BME280;57757;53.198;19.646;2023-07-20T07:19:05;99537.48;;;20.43;56.41
70338;BME280;57757;53.198;19.646;2023-07-20T07:21:34;99541.44;;;20.59;56.29
70338;BME280;57757;53.198;19.646;2023-07-20T07:24:02;99537.79;;;20.68;56.02
70338;BME280;57757;53.198;19.646;2023-07-20T07:26:29;99530.22;;;20.74;55.93
70338;BME280;57757;53.198;19.646;2023-07-20T07:28:56;99524.42;;;20.74;55.73
70338;BME280;57757;53.198;19.646;2023-07-20T07:31:29;99530.45;;;20.71;55.65
70338;BME280;57757;53.198;19.646;2023-07-20T07:33:57;99537.56;;;20.59;55.24
70338;BME280;57757;53.198;19.646;2023-07-20T07:36:24;99533.31;;;20.49;55.43
70338;BME280;57757;53.198;19.646;2023-07-20T07:38:52;99538.04;;;20.50;55.48
70338;BME280;57757;53.198;19.646;2023-07-20T07:41:22;99540.30;;;20.50;55.32
70338;BME280;57757;53.198;19.646;2023-07-20T07:43:50;99538.59;;;20.55;55.34
70338;BME280;57757;53.198;19.646;2023-07-20T07:46:18;99535.73;;;20.58;55.09
70338;BME280;57757;53.198;19.646;2023-07-20T07:48:45;99538.13;;;20.56;55.07
70338;BME280;57757;53.198;19.646;2023-07-20T07:51:13;99541.54;;;20.53;54.85
70338;BME280;57757;53.198;19.646;2023-07-20T07:53:41;99543.69;;;20.36;54.51
70338;BME280;57757;53.198;19.646;2023-07-20T07:56:09;99542.58;;;20.24;54.81
70338;BME280;57757;53.198;19.646;2023-07-20T07:58:37;99541.64;;;20.28;54.93
70338;BME280;57757;53.198;19.646;2023-07-20T08:01:04;99547.15;;;20.35;55.07
70338;BME280;57757;53.198;19.646;2023-07-20T08:03:32;99543.63;;;20.37;54.76
70338;BME280;57757;53.198;19.646;2023-07-20T08:05:59;99542.60;;;20.39;54.93
70338;BME280;57757;53.198;19.646;2023-07-20T08:08:27;99544.22;;;20.41;54.68
70338;BME280;57757;53.198;19.646;2023-07-20T08:10:54;99544.84;;;20.25;54.22
70338;BME280;57757;53.198;19.646;2023-07-20T08:13:24;99546.79;;;20.06;54.52
70338;BME280;57757;53.198;19.646;2023-07-20T08:15:52;99543.96;;;19.94;54.50
70338;BME280;57757;53.198;19.646;2023-07-20T08:18:20;99549.79;;;19.84;54.43
70338;BME280;57757;53.198;19.646;2023-07-20T08:20:49;99547.66;;;19.72;54.55
70338;BME280;57757;53.198;19.646;2023-07-20T08:23:16;99546.07;;;19.62;54.59
70338;BME280;57757;53.198;19.646;2023-07-20T08:25:44;99544.84;;;19.51;54.49
70338;BME280;57757;53.198;19.646;2023-07-20T08:28:13;99542.34;;;19.55;54.99
70338;BME280;57757;53.198;19.646;2023-07-20T08:30:45;99547.06;;;19.73;54.98
70338;BME280;57757;53.198;19.646;2023-07-20T08:33:14;99545.46;;;19.85;54.90
70338;BME280;57757;53.198;19.646;2023-07-20T08:35:42;99549.38;;;19.87;54.59
70338;BME280;57757;53.198;19.646;2023-07-20T08:38:10;99548.83;;;19.85;54.41
70338;BME280;57757;53.198;19.646;2023-07-20T08:40:54;99546.16;;;19.80;54.51
70338;BME280;57757;53.198;19.646;2023-07-20T08:43:23;99541.60;;;19.77;54.33
70338;BME280;57757;53.198;19.646;2023-07-20T08:45:54;99544.11;;;19.82;54.58
70338;BME280;57757;53.198;19.646;2023-07-20T08:48:24;99551.40;;;19.93;54.55
70338;BME280;57757;53.198;19.646;2023-07-20T08:50:52;99551.64;;;19.97;54.15
70338;BME280;57757;53.198;19.646;2023-07-20T08:53:21;99545.29;;;19.99;54.18
70338;BME280;57757;53.198;19.646;2023-07-20T08:55:51;99542.54;;;20.01;54.12
70338;BME280;57757;53.198;19.646;2023-07-20T08:58:20;99544.59;;;20.09;54.17
70338;BME280;57757;53.198;19.646;2023-07-20T09:00:48;99545.38;;;20.13;54.00
70338;BME280;57757;53.198;19.646;2023-07-20T09:03:18;99551.14;;;20.11;53.56
70338;BME280;57757;53.198;19.646;2023-07-20T09:05:47;99546.46;;;20.08;53.57
70338;BME280;57757;53.198;19.646;2023-07-20T09:08:14;99549.70;;;20.07;53.65
70338;BME280;57757;53.198;19.646;2023-07-20T09:10:42;99546.80;;;20.00;53.61
70338;BME280;57757;53.198;19.646;2023-07-20T09:13:09;99548.96;;;19.97;53.49
70338;BME280;57757;53.198;19.646;2023-07-20T09:15:37;99549.08;;;20.00;53.60
70338;BME280;57757;53.198;19.646;2023-07-20T09:18:04;99550.11;;;20.06;53.54
70338;BME280;57757;53.198;19.646;2023-07-20T09:20:32;99550.88;;;20.08;53.23
70338;BME280;57757;53.198;19.646;2023-07-20T09:23:04;99550.75;;;20.09;53.31
70338;BME280;57757;53.198;19.646;2023-07-20T09:25:32;99549.50;;;20.12;53.29
70338;BME280;57757;53.198;19.646;2023-07-20T09:28:02;99552.95;;;20.18;53.30
70338;BME280;57757;53.198;19.646;2023-07-20T09:30:32;99552.35;;;20.23;53.03
70338;BME280;57757;53.198;19.646;2023-07-20T09:33:00;99549.23;;;20.28;53.08
70338;BME280;57757;53.198;19.646;2023-07-20T09:35:28;99549.23;;;20.35;53.05
70338;BME280;57757;53.198;19.646;2023-07-20T09:38:09;99548.36;;;20.42;52.99
70338;BME280;57757;53.198;19.646;2023-07-20T09:40:40;99544.25;;;20.57;53.20
70338;BME280;57757;53.198;19.646;2023-07-20T09:43:11;99543.84;;;20.81;52.99
70338;BME280;57757;53.198;19.646;2023-07-20T09:45:42;99533.52;;;21.03;53.07
70338;BME280;57757;53.198;19.646;2023-07-20T09:48:12;99533.71;;;21.17;52.80
70338;BME280;57757;53.198;19.646;2023-07-20T09:50:49;99533.95;;;21.45;52.88
70338;BME280;57757;53.198;19.646;2023-07-20T09:53:18;99531.33;;;21.78;52.49
70338;BME280;57757;53.198;19.646;2023-07-20T09:55:47;99528.43;;;21.85;52.18
70338;BME280;57757;53.198;19.646;2023-07-20T09:58:16;99534.14;;;22.03;52.31
70338;BME280;57757;53.198;19.646;2023-07-20T10:00:45;99531.95;;;22.08;51.69
70338;BME280;57757;53.198;19.646;2023-07-20T10:03:28;99531.13;;;21.96;51.23
70338;BME280;57757;53.198;19.646;2023-07-20T10:06:06;99531.73;;;21.93;51.53
70338;BME280;57757;53.198;19.646;2023-07-20T10:08:41;99530.02;;;21.83;51.13
70338;BME280;57757;53.198;19.646;2023-07-20T10:11:15;99520.83;;;21.83;51.40
70338;BME280;57757;53.198;19.646;2023-07-20T10:13:43;99519.13;;;22.19;51.87
70338;BME280;57757;53.198;19.646;2023-07-20T10:16:22;99517.23;;;22.74;51.89
70338;BME280;57757;53.198;19.646;2023-07-20T10:19:12;99510.94;;;23.45;51.70
70338;BME280;57757;53.198;19.646;2023-07-20T10:21:51;99510.11;;;23.89;51.22
70338;BME280;57757;53.198;19.646;2023-07-20T10:24:26;99509.23;;;24.34;51.13
70338;BME280;57757;53.198;19.646;2023-07-20T10:26:55;99506.00;;;24.90;50.87
70338;BME280;57757;53.198;19.646;2023-07-20T10:29:24;99503.86;;;25.18;50.41
70338;BME280;57757;53.198;19.646;2023-07-20T10:31:55;99504.72;;;25.23;49.47
70338;BME280;57757;53.198;19.646;2023-07-20T10:34:23;99504.39;;;25.07;49.05
70338;BME280;57757;53.198;19.646;2023-07-20T10:36:51;99504.49;;;24.83;48.52
70338;BME280;57757;53.198;19.646;2023-07-20T10:42:03;99496.86;;;24.62;48.81
70338;BME280;57757;53.198;19.646;2023-07-20T10:44:34;99487.47;;;24.71;48.42
70338;BME280;57757;53.198;19.646;2023-07-20T10:47:09;99488.95;;;24.67;48.19
70338;BME280;57757;53.198;19.646;2023-07-20T10:49:58;99485.09;;;24.93;48.43
70338;BME280;57757;53.198;19.646;2023-07-20T10:52:36;99485.63;;;25.19;47.78
70338;BME280;57757;53.198;19.646;2023-07-20T10:55:14;99479.73;;;25.40;47.92
70338;BME280;57757;53.198;19.646;2023-07-20T10:57:42;99476.07;;;25.69;47.56
70338;BME280;57757;53.198;19.646;2023-07-20T11:00:13;99479.66;;;25.65;46.95
70338;BME280;57757;53.198;19.646;2023-07-20T11:02:43;99475.15;;;25.54;46.41
70338;BME280;57757;53.198;19.646;2023-07-20T11:05:31;99473.09;;;25.57;46.62
70338;BME280;57757;53.198;19.646;2023-07-20T11:07:59;99476.35;;;25.44;46.35
70338;BME280;57757;53.198;19.646;2023-07-20T11:10:26;99474.66;;;25.13;46.11
70338;BME280;57757;53.198;19.646;2023-07-20T11:18:25;99471.29;;;25.70;46.41
70338;BME280;57757;53.198;19.646;2023-07-20T11:20:53;99466.74;;;26.22;45.89
70338;BME280;57757;53.198;19.646;2023-07-20T11:23:21;99456.22;;;26.59;45.84
70338;BME280;57757;53.198;19.646;2023-07-20T11:25:49;99458.72;;;27.23;45.85
70338;BME280;57757;53.198;19.646;2023-07-20T11:28:17;99457.45;;;27.99;45.47
70338;BME280;57757;53.198;19.646;2023-07-20T11:30:51;99454.83;;;28.46;44.86
70338;BME280;57757;53.198;19.646;2023-07-20T11:33:19;99442.51;;;28.99;44.84
70338;BME280;57757;53.198;19.646;2023-07-20T11:35:48;99443.38;;;29.51;44.30
70338;BME280;57757;53.198;19.646;2023-07-20T11:38:18;99447.43;;;29.77;43.48
70338;BME280;57757;53.198;19.646;2023-07-20T11:40:46;99449.19;;;29.85;42.92
70338;BME280;57757;53.198;19.646;2023-07-20T11:43:14;99443.38;;;29.70;42.26
70338;BME280;57757;53.198;19.646;2023-07-20T11:45:45;99443.06;;;29.73;42.20
70338;BME280;57757;53.198;19.646;2023-07-20T11:48:16;99436.13;;;29.80;42.02
70338;BME280;57757;53.198;19.646;2023-07-20T11:50:45;99438.58;;;29.96;41.86
70338;BME280;57757;53.198;19.646;2023-07-20T11:53:13;99435.16;;;30.21;41.74
70338;BME280;57757;53.198;19.646;2023-07-20T11:55:41;99435.04;;;30.49;41.36
70338;BME280;57757;53.198;19.646;2023-07-20T11:58:09;99437.15;;;30.34;40.91
70338;BME280;57757;53.198;19.646;2023-07-20T12:00:38;99431.00;;;30.39;41.21
70338;BME280;57757;53.198;19.646;2023-07-20T12:03:07;99425.86;;;30.91;41.25
70338;BME280;57757;53.198;19.646;2023-07-20T12:05:37;99428.80;;;31.52;40.74
70338;BME280;57757;53.198;19.646;2023-07-20T12:08:25;99424.27;;;32.13;40.64
70338;BME280;57757;53.198;19.646;2023-07-20T12:10:52;99425.98;;;32.75;40.11
70338;BME280;57757;53.198;19.646;2023-07-20T12:13:20;99426.38;;;32.98;39.29
70338;BME280;57757;53.198;19.646;2023-07-20T12:15:47;99423.64;;;33.04;38.81
70338;BME280;57757;53.198;19.646;2023-07-20T12:18:15;99424.90;;;32.59;38.08
70338;BME280;57757;53.198;19.646;2023-07-20T12:20:42;99430.49;;;31.59;37.74
70338;BME280;57757;53.198;19.646;2023-07-20T12:23:12;99431.33;;;30.59;37.63
70338;BME280;57757;53.198;19.646;2023-07-20T12:25:41;99435.40;;;29.60;37.66
70338;BME280;57757;53.198;19.646;2023-07-20T12:30:38;99440.33;;;27.98;37.80
70338;BME280;57757;53.198;19.646;2023-07-20T12:33:06;99442.14;;;27.48;37.85
70338;BME280;57757;53.198;19.646;2023-07-20T12:35:34;99443.46;;;27.15;38.11
70338;BME280;57757;53.198;19.646;2023-07-20T12:38:01;99443.95;;;27.43;38.47
70338;BME280;57757;53.198;19.646;2023-07-20T12:40:29;99436.86;;;27.89;38.24
70338;BME280;57757;53.198;19.646;2023-07-20T12:42:57;99434.15;;;28.11;38.01
70338;BME280;57757;53.198;19.646;2023-07-20T12:45:25;99437.04;;;28.56;38.00
70338;BME280;57757;53.198;19.646;2023-07-20T12:47:53;99434.20;;;29.09;37.77
70338;BME280;57757;53.198;19.646;2023-07-20T12:50:20;99433.73;;;29.20;37.30
70338;BME280;57757;53.198;19.646;2023-07-20T12:52:48;99434.48;;;29.05;37.13
70338;BME280;57757;53.198;19.646;2023-07-20T12:55:15;99436.15;;;28.87;36.77
70338;BME280;57757;53.198;19.646;2023-07-20T12:57:43;99446.02;;;28.46;36.30
70338;BME280;57757;53.198;19.646;2023-07-20T13:00:11;99448.00;;;27.82;36.20
70338;BME280;57757;53.198;19.646;2023-07-20T13:02:39;99438.91;;;27.58;36.80
70338;BME280;57757;53.198;19.646;2023-07-20T13:05:07;99440.93;;;28.36;37.08
70338;BME280;57757;53.198;19.646;2023-07-20T13:07:36;99439.23;;;28.96;36.48
70338;BME280;57757;53.198;19.646;2023-07-20T13:10:07;99434.98;;;29.37;36.51
70338;BME280;57757;53.198;19.646;2023-07-20T13:12:37;99435.92;;;29.45;36.07
70338;BME280;57757;53.198;19.646;2023-07-20T13:15:06;99447.90;;;29.07;35.76
70338;BME280;57757;53.198;19.646;2023-07-20T13:17:39;99463.00;;;28.43;35.53
70338;BME280;57757;53.198;19.646;2023-07-20T13:20:08;99481.02;;;27.70;35.61
70338;BME280;57757;53.198;19.646;2023-07-20T13:22:38;99500.33;;;26.65;35.24